sensor_id;sensor_type;location;lat;lon;timestamp;pressure;altitude;pressure_sealevel;temperature;humidity
7532;BME280;3807;49.030;8.714;2023-07-16T00:01:01;99109.00;;;27.74;52.75
7532;BME280;3807;49.030;8.714;2023-07-16T00:03:26;99114.06;;;27.67;51.68
7532;BME280;3807;49.030;8.714;2023-07-16T00:05:52;99132.37;;;27.67;52.14
7532;BME280;3807;49.030;8.714;2023-07-16T00:08:17;99151.53;;;27.60;52.15
7532;BME280;3807;49.030;8.714;2023-07-16T00:10:42;99143.34;;;27.54;51.94
7532;BME280;3807;49.030;8.714;2023-07-16T00:13:08;99138.59;;;27.50;52.23
7532;BME280;3807;49.030;8.714;2023-07-16T00:15:33;99140.59;;;27.48;53.04
7532;BME280;3807;49.030;8.714;2023-07-16T00:17:59;99123.41;;;27.45;52.49
7532;BME280;3807;49.030;8.714;2023-07-16T00:20:24;99108.38;;;27.39;52.32
7532;BME280;3807;49.030;8.714;2023-07-16T00:22:50;99113.12;;;27.36;52.43
7532;BME280;3807;49.030;8.714;2023-07-16T00:25:16;99094.00;;;27.27;52.70
7532;BME280;3807;49.030;8.714;2023-07-16T00:27:41;99090.41;;;27.28;52.94
7532;BME280;3807;49.030;8.714;2023-07-16T00:30:07;99074.72;;;27.28;53.40
7532;BME280;3807;49.030;8.714;2023-07-16T00:32:33;99076.00;;;27.07;53.43
7532;BME280;3807;49.030;8.714;2023-07-16T00:34:58;99071.09;;;27.13;54.32
7532;BME280;3807;49.030;8.714;2023-07-16T00:37:24;99067.50;;;27.05;53.26
7532;BME280;3807;49.030;8.714;2023-07-16T00:39:49;99061.81;;;27.18;53.25
7532;BME280;3807;49.030;8.714;2023-07-16T00:42:15;99086.28;;;26.93;53.38
7532;BME280;3807;49.030;8.714;2023-07-16T00:44:40;99088.38;;;26.81;53.82
7532;BME280;3807;49.030;8.714;2023-07-16T00:47:05;99097.88;;;26.98;53.59
7532;BME280;3807;49.030;8.714;2023-07-16T00:49:31;99081.84;;;26.77;53.93
7532;BME280;3807;49.030;8.714;2023-07-16T00:51:58;99108.81;;;26.94;53.86
7532;BME280;3807;49.030;8.714;2023-07-16T00:54:24;99106.84;;;26.88;53.46
7532;BME280;3807;49.030;8.714;2023-07-16T00:56:49;99111.09;;;26.89;54.09
7532;BME280;3807;49.030;8.714;2023-07-16T00:59:15;99139.94;;;26.63;53.82
7532;BME280;3807;49.030;8.714;2023-07-16T01:01:40;99141.34;;;26.49;53.94
7532;BME280;3807;49.030;8.714;2023-07-16T01:04:05;99128.72;;;26.02;55.59
7532;BME280;3807;49.030;8.714;2023-07-16T01:06:48;99130.97;;;26.31;54.16
7532;BME280;3807;49.030;8.714;2023-07-16T01:09:17;99141.84;;;26.52;54.00
7532;BME280;3807;49.030;8.714;2023-07-16T01:11:44;99161.59;;;26.21;54.28
7532;BME280;3807;49.030;8.714;2023-07-16T01:14:10;99184.06;;;26.40;53.90
7532;BME280;3807;49.030;8.714;2023-07-16T01:16:36;99173.97;;;26.45;53.75
7532;BME280;3807;49.030;8.714;2023-07-16T01:19:02;99175.59;;;26.46;54.44
7532;BME280;3807;49.030;8.714;2023-07-16T01:21:35;99187.75;;;26.29;54.09
7532;BME280;3807;49.030;8.714;2023-07-16T01:32:00;99140.69;;;26.12;54.28
7532;BME280;3807;49.030;8.714;2023-07-16T01:34:28;99137.59;;;26.17;54.10
7532;BME280;3807;49.030;8.714;2023-07-16T01:36:54;99161.63;;;25.95;54.30
7532;BME280;3807;49.030;8.714;2023-07-16T01:39:20;99156.63;;;26.01;54.49
7532;BME280;3807;49.030;8.714;2023-07-16T01:41:45;99165.69;;;25.97;54.13
7532;BME280;3807;49.030;8.714;2023-07-16T01:44:11;99183.75;;;25.90;54.23
7532;BME280;3807;49.030;8.714;2023-07-16T01:46:36;99162.75;;;25.92;54.43
7532;BME280;3807;49.030;8.714;2023-07-16T01:49:02;99161.13;;;25.91;54.35
7532;BME280;3807;49.030;8.714;2023-07-16T01:51:27;99149.91;;;25.99;54.34
7532;BME280;3807;49.030;8.714;2023-07-16T01:53:53;99154.72;;;25.85;54.22
7532;BME280;3807;49.030;8.714;2023-07-16T01:56:18;99160.00;;;25.76;54.49
7532;BME280;3807;49.030;8.714;2023-07-16T01:58:43;99175.41;;;25.87;54.15
7532;BME280;3807;49.030;8.714;2023-07-16T02:01:08;99180.84;;;25.76;54.76
7532;BME280;3807;49.030;8.714;2023-07-16T02:03:34;99194.59;;;25.60;54.69
7532;BME280;3807;49.030;8.714;2023-07-16T02:05:59;99204.06;;;25.61;54.56
7532;BME280;3807;49.030;8.714;2023-07-16T02:08:25;99202.72;;;25.57;54.44
7532;BME280;3807;49.030;8.714;2023-07-16T02:10:50;99209.50;;;25.67;54.52
7532;BME280;3807;49.030;8.714;2023-07-16T02:13:15;99209.06;;;25.54;54.93
7532;BME280;3807;49.030;8.714;2023-07-16T02:15:42;99203.56;;;25.39;54.78
7532;BME280;3807;49.030;8.714;2023-07-16T02:18:07;99201.31;;;25.45;54.72
7532;BME280;3807;49.030;8.714;2023-07-16T02:20:33;99202.81;;;25.47;54.69
7532;BME280;3807;49.030;8.714;2023-07-16T02:22:58;99212.41;;;25.47;54.53
7532;BME280;3807;49.030;8.714;2023-07-16T02:25:23;99210.09;;;25.43;54.60
7532;BME280;3807;49.030;8.714;2023-07-16T02:27:50;99228.12;;;25.37;54.71
7532;BME280;3807;49.030;8.714;2023-07-16T02:30:16;99218.16;;;25.32;54.90
7532;BME280;3807;49.030;8.714;2023-07-16T02:32:41;99228.41;;;25.34;54.98
7532;BME280;3807;49.030;8.714;2023-07-16T02:35:07;99233.94;;;25.31;54.94
7532;BME280;3807;49.030;8.714;2023-07-16T02:37:33;99227.81;;;25.22;55.13
7532;BME280;3807;49.030;8.714;2023-07-16T02:39:58;99233.56;;;25.26;54.93
7532;BME280;3807;49.030;8.714;2023-07-16T02:42:24;99240.47;;;25.17;55.08
7532;BME280;3807;49.030;8.714;2023-07-16T02:44:49;99241.88;;;25.11;55.14
7532;BME280;3807;49.030;8.714;2023-07-16T02:47:15;99238.31;;;25.12;55.18
7532;BME280;3807;49.030;8.714;2023-07-16T02:49:40;99244.75;;;25.08;55.04
7532;BME280;3807;49.030;8.714;2023-07-16T02:52:06;99255.31;;;25.07;55.19
7532;BME280;3807;49.030;8.714;2023-07-16T02:54:31;99249.72;;;25.11;55.21
7532;BME280;3807;49.030;8.714;2023-07-16T02:56:57;99252.53;;;24.90;55.38
7532;BME280;3807;49.030;8.714;2023-07-16T02:59:23;99240.69;;;24.96;55.34
7532;BME280;3807;49.030;8.714;2023-07-16T03:01:48;99235.09;;;24.91;55.49
7532;BME280;3807;49.030;8.714;2023-07-16T03:04:13;99240.22;;;24.83;55.62
7532;BME280;3807;49.030;8.714;2023-07-16T03:06:39;99235.56;;;24.86;55.52
7532;BME280;3807;49.030;8.714;2023-07-16T03:09:04;99234.31;;;24.81;55.63
7532;BME280;3807;49.030;8.714;2023-07-16T03:11:30;99227.25;;;24.73;55.77
7532;BME280;3807;49.030;8.714;2023-07-16T03:13:55;99226.13;;;24.76;55.65
7532;BME280;3807;49.030;8.714;2023-07-16T03:16:20;99235.19;;;24.71;55.68
7532;BME280;3807;49.030;8.714;2023-07-16T03:18:46;99239.03;;;24.67;55.60
7532;BME280;3807;49.030;8.714;2023-07-16T03:21:12;99244.69;;;24.63;55.82
7532;BME280;3807;49.030;8.714;2023-07-16T03:23:37;99244.25;;;24.67;55.70
7532;BME280;3807;49.030;8.714;2023-07-16T03:26:03;99256.91;;;24.62;55.97
7532;BME280;3807;49.030;8.714;2023-07-16T03:28:28;99252.09;;;24.58;55.61
7532;BME280;3807;49.030;8.714;2023-07-16T03:30:54;99246.78;;;24.50;55.90
7532;BME280;3807;49.030;8.714;2023-07-16T03:33:19;99257.91;;;24.42;55.94
7532;BME280;3807;49.030;8.714;2023-07-16T03:35:46;99254.63;;;24.40;56.04
7532;BME280;3807;49.030;8.714;2023-07-16T03:38:12;99257.09;;;24.41;55.91
7532;BME280;3807;49.030;8.714;2023-07-16T03:40:38;99258.03;;;24.40;55.93
7532;BME280;3807;49.030;8.714;2023-07-16T03:43:03;99254.87;;;24.37;56.06
7532;BME280;3807;49.030;8.714;2023-07-16T03:45:29;99265.97;;;24.39;56.11
7532;BME280;3807;49.030;8.714;2023-07-16T03:47:55;99282.97;;;24.33;55.82
7532;BME280;3807;49.030;8.714;2023-07-16T03:50:20;99282.16;;;24.23;56.22
7532;BME280;3807;49.030;8.714;2023-07-16T03:52:45;99275.31;;;24.32;55.81
7532;BME280;3807;49.030;8.714;2023-07-16T03:55:11;99281.59;;;24.29;56.04
7532;BME280;3807;49.030;8.714;2023-07-16T03:57:36;99285.44;;;24.25;56.01
7532;BME280;3807;49.030;8.714;2023-07-16T04:00:05;99289.72;;;24.16;56.02
7532;BME280;3807;49.030;8.714;2023-07-16T04:02:34;99299.56;;;24.13;56.34
7532;BME280;3807;49.030;8.714;2023-07-16T04:04:59;99309.56;;;24.17;56.03
7532;BME280;3807;49.030;8.714;2023-07-16T04:07:25;99309.19;;;24.03;56.40
7532;BME280;3807;49.030;8.714;2023-07-16T04:09:51;99314.63;;;24.09;56.50
7532;BME280;3807;49.030;8.714;2023-07-16T04:12:16;99315.31;;;24.11;56.42
7532;BME280;3807;49.030;8.714;2023-07-16T04:14:41;99311.09;;;24.10;56.21
7532;BME280;3807;49.030;8.714;2023-07-16T04:17:07;99312.59;;;24.03;56.23
7532;BME280;3807;49.030;8.714;2023-07-16T04:19:32;99311.09;;;24.10;55.92
7532;BME280;3807;49.030;8.714;2023-07-16T04:21:57;99314.78;;;23.98;56.43
7532;BME280;3807;49.030;8.714;2023-07-16T04:24:23;99318.34;;;23.97;56.15
7532;BME280;3807;49.030;8.714;2023-07-16T04:26:49;99299.84;;;23.90;56.51
7532;BME280;3807;49.030;8.714;2023-07-16T04:29:14;99301.63;;;23.90;56.40
7532;BME280;3807;49.030;8.714;2023-07-16T04:31:40;99322.19;;;23.93;56.38
7532;BME280;3807;49.030;8.714;2023-07-16T04:34:06;99337.69;;;23.64;57.26
7532;BME280;3807;49.030;8.714;2023-07-16T04:36:31;99337.56;;;23.56;57.53
7532;BME280;3807;49.030;8.714;2023-07-16T04:38:57;99341.12;;;23.54;57.42
7532;BME280;3807;49.030;8.714;2023-07-16T04:41:22;99333.62;;;23.61;57.11
7532;BME280;3807;49.030;8.714;2023-07-16T04:43:47;99327.19;;;23.65;57.10
7532;BME280;3807;49.030;8.714;2023-07-16T04:46:13;99342.66;;;23.57;57.11
7532;BME280;3807;49.030;8.714;2023-07-16T04:48:38;99329.91;;;23.54;57.12
7532;BME280;3807;49.030;8.714;2023-07-16T04:51:03;99331.41;;;23.47;57.57
7532;BME280;3807;49.030;8.714;2023-07-16T04:53:29;99340.94;;;23.37;57.67
7532;BME280;3807;49.030;8.714;2023-07-16T04:55:55;99344.19;;;23.29;57.81
7532;BME280;3807;49.030;8.714;2023-07-16T04:58:22;99359.31;;;23.14;58.42
7532;BME280;3807;49.030;8.714;2023-07-16T05:00:47;99354.97;;;23.24;58.09
7532;BME280;3807;49.030;8.714;2023-07-16T05:03:12;99357.47;;;23.26;58.02
7532;BME280;3807;49.030;8.714;2023-07-16T05:05:38;99357.56;;;23.24;58.13
7532;BME280;3807;49.030;8.714;2023-07-16T05:08:03;99361.50;;;23.09;58.45
7532;BME280;3807;49.030;8.714;2023-07-16T05:10:29;99363.13;;;22.89;58.92
7532;BME280;3807;49.030;8.714;2023-07-16T05:12:54;99372.97;;;23.06;58.42
7532;BME280;3807;49.030;8.714;2023-07-16T05:15:19;99371.75;;;23.11;58.11
7532;BME280;3807;49.030;8.714;2023-07-16T05:17:45;99366.53;;;23.11;58.22
7532;BME280;3807;49.030;8.714;2023-07-16T05:20:11;99366.19;;;23.15;57.88
7532;BME280;3807;49.030;8.714;2023-07-16T05:22:36;99366.44;;;23.12;58.34
7532;BME280;3807;49.030;8.714;2023-07-16T05:25:02;99373.00;;;23.16;57.84
7532;BME280;3807;49.030;8.714;2023-07-16T05:27:27;99388.84;;;23.13;57.82
7532;BME280;3807;49.030;8.714;2023-07-16T05:29:53;99384.56;;;23.02;58.22
7532;BME280;3807;49.030;8.714;2023-07-16T05:32:18;99374.91;;;23.14;57.96
7532;BME280;3807;49.030;8.714;2023-07-16T05:34:43;99370.97;;;23.20;57.54
7532;BME280;3807;49.030;8.714;2023-07-16T05:37:09;99375.25;;;23.00;58.07
7532;BME280;3807;49.030;8.714;2023-07-16T05:39:34;99380.53;;;23.19;57.58
7532;BME280;3807;49.030;8.714;2023-07-16T05:41:59;99390.31;;;23.06;57.85
7532;BME280;3807;49.030;8.714;2023-07-16T05:44:27;99393.47;;;23.10;57.84
7532;BME280;3807;49.030;8.714;2023-07-16T05:46:52;99391.41;;;23.03;58.01
7532;BME280;3807;49.030;8.714;2023-07-16T05:49:18;99397.56;;;23.33;57.00
7532;BME280;3807;49.030;8.714;2023-07-16T05:51:43;99392.88;;;23.27;57.04
7532;BME280;3807;49.030;8.714;2023-07-16T05:54:08;99400.41;;;23.30;56.91
7532;BME280;3807;49.030;8.714;2023-07-16T05:56:34;99419.72;;;23.37;56.79
7532;BME280;3807;49.030;8.714;2023-07-16T05:58:59;99411.41;;;23.43;56.89
7532;BME280;3807;49.030;8.714;2023-07-16T06:01:24;99413.50;;;23.19;57.18
7532;BME280;3807;49.030;8.714;2023-07-16T06:03:50;99409.19;;;23.39;56.54
7532;BME280;3807;49.030;8.714;2023-07-16T06:06:15;99406.75;;;23.37;56.57
7532;BME280;3807;49.030;8.714;2023-07-16T06:08:40;99413.16;;;23.43;56.39
7532;BME280;3807;49.030;8.714;2023-07-16T06:11:06;99409.59;;;23.34;56.47
7532;BME280;3807;49.030;8.714;2023-07-16T06:13:31;99428.50;;;23.46;56.17
7532;BME280;3807;49.030;8.714;2023-07-16T06:15:56;99426.56;;;23.38;56.38
7532;BME280;3807;49.030;8.714;2023-07-16T06:18:22;99430.19;;;23.47;55.91
7532;BME280;3807;49.030;8.714;2023-07-16T06:20:47;99422.91;;;23.41;56.23
7532;BME280;3807;49.030;8.714;2023-07-16T06:23:13;99426.47;;;23.40;56.09
7532;BME280;3807;49.030;8.714;2023-07-16T06:25:38;99433.16;;;23.42;55.81
7532;BME280;3807;49.030;8.714;2023-07-16T06:28:09;99429.22;;;23.48;55.91
7532;BME280;3807;49.030;8.714;2023-07-16T06:30:35;99434.06;;;23.32;56.35
7532;BME280;3807;49.030;8.714;2023-07-16T06:33:00;99428.78;;;23.43;56.14
7532;BME280;3807;49.030;8.714;2023-07-16T06:35:25;99428.75;;;23.33;56.19
7532;BME280;3807;49.030;8.714;2023-07-16T06:37:51;99434.25;;;23.40;55.67
7532;BME280;3807;49.030;8.714;2023-07-16T06:40:16;99437.37;;;23.34;56.30
7532;BME280;3807;49.030;8.714;2023-07-16T06:42:41;99432.03;;;23.35;56.01
7532;BME280;3807;49.030;8.714;2023-07-16T06:45:07;99430.69;;;23.41;56.03
7532;BME280;3807;49.030;8.714;2023-07-16T06:47:33;99428.09;;;23.41;55.96
7532;BME280;3807;49.030;8.714;2023-07-16T06:49:58;99426.72;;;23.37;56.35
7532;BME280;3807;49.030;8.714;2023-07-16T06:52:24;99428.34;;;23.38;56.20
7532;BME280;3807;49.030;8.714;2023-07-16T06:54:53;99427.03;;;23.43;56.02
7532;BME280;3807;49.030;8.714;2023-07-16T06:57:18;99427.56;;;23.47;55.85
7532;BME280;3807;49.030;8.714;2023-07-16T06:59:44;99424.94;;;23.37;55.75
7532;BME280;3807;49.030;8.714;2023-07-16T07:02:10;99428.50;;;23.46;55.97
7532;BME280;3807;49.030;8.714;2023-07-16T07:04:35;99441.00;;;23.52;55.89
7532;BME280;3807;49.030;8.714;2023-07-16T07:07:00;99446.06;;;23.53;55.78
7532;BME280;3807;49.030;8.714;2023-07-16T07:09:26;99440.88;;;23.63;55.59
7532;BME280;3807;49.030;8.714;2023-07-16T07:11:51;99438.75;;;23.68;55.39
7532;BME280;3807;49.030;8.714;2023-07-16T07:14:16;99427.28;;;23.40;55.80
7532;BME280;3807;49.030;8.714;2023-07-16T07:16:42;99428.16;;;23.60;55.66
7532;BME280;3807;49.030;8.714;2023-07-16T07:19:08;99439.69;;;23.67;55.36
7532;BME280;3807;49.030;8.714;2023-07-16T07:21:33;99422.44;;;23.66;55.29
7532;BME280;3807;49.030;8.714;2023-07-16T07:23:58;99429.75;;;23.72;55.21
7532;BME280;3807;49.030;8.714;2023-07-16T07:26:24;99434.41;;;23.79;54.98
7532;BME280;3807;49.030;8.714;2023-07-16T07:28:50;99429.41;;;23.66;55.60
7532;BME280;3807;49.030;8.714;2023-07-16T07:31:15;99432.50;;;23.50;55.54
7532;BME280;3807;49.030;8.714;2023-07-16T07:33:40;99426.44;;;23.70;55.26
7532;BME280;3807;49.030;8.714;2023-07-16T07:36:06;99441.38;;;23.68;55.18
7532;BME280;3807;49.030;8.714;2023-07-16T07:38:31;99443.03;;;23.79;54.48
7532;BME280;3807;49.030;8.714;2023-07-16T07:40:56;99446.72;;;23.76;54.59
7532;BME280;3807;49.030;8.714;2023-07-16T07:43:22;99448.12;;;23.90;54.56
7532;BME280;3807;49.030;8.714;2023-07-16T07:45:47;99460.87;;;23.93;54.52
7532;BME280;3807;49.030;8.714;2023-07-16T07:48:12;99466.63;;;23.97;54.49
7532;BME280;3807;49.030;8.714;2023-07-16T07:50:38;99453.22;;;24.01;54.35
7532;BME280;3807;49.030;8.714;2023-07-16T07:53:03;99454.59;;;24.06;54.31
7532;BME280;3807;49.030;8.714;2023-07-16T07:55:28;99463.25;;;24.06;54.17
7532;BME280;3807;49.030;8.714;2023-07-16T07:57:54;99473.50;;;24.08;54.26
7532;BME280;3807;49.030;8.714;2023-07-16T08:00:19;99469.53;;;24.04;53.98
7532;BME280;3807;49.030;8.714;2023-07-16T08:02:45;99479.09;;;24.13;53.91
7532;BME280;3807;49.030;8.714;2023-07-16T08:05:10;99474.87;;;24.21;53.86
7532;BME280;3807;49.030;8.714;2023-07-16T08:07:35;99478.88;;;24.25;53.73
7532;BME280;3807;49.030;8.714;2023-07-16T08:10:01;99468.75;;;24.32;53.21
7532;BME280;3807;49.030;8.714;2023-07-16T08:12:26;99467.09;;;24.21;52.96
7532;BME280;3807;49.030;8.714;2023-07-16T08:14:51;99469.28;;;24.16;52.53
7532;BME280;3807;49.030;8.714;2023-07-16T08:17:17;99467.87;;;24.12;53.20
7532;BME280;3807;49.030;8.714;2023-07-16T08:19:42;99465.09;;;24.44;53.02
7532;BME280;3807;49.030;8.714;2023-07-16T08:22:07;99465.06;;;24.54;52.50
7532;BME280;3807;49.030;8.714;2023-07-16T08:24:33;99476.84;;;24.68;52.35
7532;BME280;3807;49.030;8.714;2023-07-16T08:26:58;99462.47;;;24.74;52.33
7532;BME280;3807;49.030;8.714;2023-07-16T08:29:23;99459.31;;;24.80;52.12
7532;BME280;3807;49.030;8.714;2023-07-16T08:31:50;99452.06;;;24.83;52.08
7532;BME280;3807;49.030;8.714;2023-07-16T08:34:16;99450.53;;;24.81;51.96
7532;BME280;3807;49.030;8.714;2023-07-16T08:36:41;99443.44;;;24.73;52.25
7532;BME280;3807;49.030;8.714;2023-07-16T08:39:07;99453.16;;;24.71;51.91
7532;BME280;3807;49.030;8.714;2023-07-16T08:41:33;99456.84;;;24.68;52.14
7532;BME280;3807;49.030;8.714;2023-07-16T08:43:58;99451.09;;;24.84;51.89
7532;BME280;3807;49.030;8.714;2023-07-16T08:46:23;99452.19;;;24.72;51.40
7532;BME280;3807;49.030;8.714;2023-07-16T08:48:50;99454.50;;;24.75;51.92
7532;BME280;3807;49.030;8.714;2023-07-16T08:51:15;99450.53;;;24.81;51.97
7532;BME280;3807;49.030;8.714;2023-07-16T08:53:42;99452.28;;;25.00;51.33
7532;BME280;3807;49.030;8.714;2023-07-16T08:56:07;99457.38;;;25.11;50.90
7532;BME280;3807;49.030;8.714;2023-07-16T08:58:33;99456.94;;;25.06;51.23
7532;BME280;3807;49.030;8.714;2023-07-16T09:00:59;99458.59;;;25.16;50.64
7532;BME280;3807;49.030;8.714;2023-07-16T09:03:24;99465.47;;;25.17;51.15
7532;BME280;3807;49.030;8.714;2023-07-16T09:05:50;99465.88;;;24.93;49.23
7532;BME280;3807;49.030;8.714;2023-07-16T09:08:15;99466.28;;;24.99;51.47
7532;BME280;3807;49.030;8.714;2023-07-16T09:10:41;99467.91;;;25.19;51.11
7532;BME280;3807;49.030;8.714;2023-07-16T09:13:07;99463.94;;;25.25;49.21
7532;BME280;3807;49.030;8.714;2023-07-16T09:15:32;99461.06;;;25.18;50.29
7532;BME280;3807;49.030;8.714;2023-07-16T09:17:59;99464.62;;;25.17;49.17
7532;BME280;3807;49.030;8.714;2023-07-16T09:20:25;99472.41;;;25.27;49.90
7532;BME280;3807;49.030;8.714;2023-07-16T09:22:56;99468.72;;;25.19;49.18
7532;BME280;3807;49.030;8.714;2023-07-16T09:25:31;99462.00;;;25.27;48.13
7532;BME280;3807;49.030;8.714;2023-07-16T09:28:02;99461.88;;;25.09;48.62
7532;BME280;3807;49.030;8.714;2023-07-16T09:30:33;99469.31;;;25.04;48.11
7532;BME280;3807;49.030;8.714;2023-07-16T09:33:09;99476.44;;;25.21;49.25
7532;BME280;3807;49.030;8.714;2023-07-16T09:35:35;99467.16;;;25.46;49.41
7532;BME280;3807;49.030;8.714;2023-07-16T09:38:02;99470.03;;;25.43;46.34
7532;BME280;3807;49.030;8.714;2023-07-16T09:40:28;99473.44;;;25.53;47.50
7532;BME280;3807;49.030;8.714;2023-07-16T09:42:54;99474.53;;;25.51;48.98
7532;BME280;3807;49.030;8.714;2023-07-16T09:45:20;99476.41;;;25.58;48.87
7532;BME280;3807;49.030;8.714;2023-07-16T09:47:46;99470.34;;;25.67;48.68
7532;BME280;3807;49.030;8.714;2023-07-16T09:50:11;99471.31;;;25.66;48.81
7532;BME280;3807;49.030;8.714;2023-07-16T09:52:37;99461.09;;;25.73;49.14
7532;BME280;3807;49.030;8.714;2023-07-16T09:55:05;99464.97;;;25.69;48.99
7532;BME280;3807;49.030;8.714;2023-07-16T09:57:38;99460.44;;;25.71;48.95
7532;BME280;3807;49.030;8.714;2023-07-16T10:00:08;99464.84;;;25.71;49.10
7532;BME280;3807;49.030;8.714;2023-07-16T10:02:37;99467.28;;;25.82;48.70
7532;BME280;3807;49.030;8.714;2023-07-16T10:05:27;99472.06;;;25.86;48.98
7532;BME280;3807;49.030;8.714;2023-07-16T10:07:58;99474.84;;;25.85;48.54
7532;BME280;3807;49.030;8.714;2023-07-16T10:10:41;99477.16;;;25.88;48.82
7532;BME280;3807;49.030;8.714;2023-07-16T10:13:08;99474.50;;;25.98;48.62
7532;BME280;3807;49.030;8.714;2023-07-16T10:15:34;99477.44;;;25.85;49.13
7532;BME280;3807;49.030;8.714;2023-07-16T10:17:59;99480.59;;;25.79;48.55
7532;BME280;3807;49.030;8.714;2023-07-16T10:20:43;99480.81;;;25.95;48.42
7532;BME280;3807;49.030;8.714;2023-07-16T10:23:12;99481.09;;;25.92;48.67
7532;BME280;3807;49.030;8.714;2023-07-16T10:25:38;99479.56;;;25.99;48.90
7532;BME280;3807;49.030;8.714;2023-07-16T10:28:04;99478.38;;;26.11;47.04
7532;BME280;3807;49.030;8.714;2023-07-16T10:30:30;99472.56;;;25.62;46.54
7532;BME280;3807;49.030;8.714;2023-07-16T10:32:55;99478.72;;;25.71;48.09
7532;BME280;3807;49.030;8.714;2023-07-16T10:35:21;99476.13;;;25.61;47.79
7532;BME280;3807;49.030;8.714;2023-07-16T10:37:46;99460.75;;;25.96;47.76
7532;BME280;3807;49.030;8.714;2023-07-16T10:40:13;99457.75;;;25.90;45.20
7532;BME280;3807;49.030;8.714;2023-07-16T10:42:40;99460.87;;;25.94;47.10
7532;BME280;3807;49.030;8.714;2023-07-16T10:45:07;99468.09;;;26.10;47.50
7532;BME280;3807;49.030;8.714;2023-07-16T10:47:37;99449.09;;;25.90;47.27
7532;BME280;3807;49.030;8.714;2023-07-16T10:50:04;99449.50;;;25.95;46.28
7532;BME280;3807;49.030;8.714;2023-07-16T10:52:30;99464.06;;;25.98;46.46
7532;BME280;3807;49.030;8.714;2023-07-16T10:54:55;99449.75;;;26.02;47.06
7532;BME280;3807;49.030;8.714;2023-07-16T10:57:23;99451.38;;;26.21;45.94
7532;BME280;3807;49.030;8.714;2023-07-16T10:59:51;99449.00;;;26.27;46.30
7532;BME280;3807;49.030;8.714;2023-07-16T11:02:17;99455.62;;;26.04;46.04
7532;BME280;3807;49.030;8.714;2023-07-16T11:04:44;99449.28;;;26.06;43.78
7532;BME280;3807;49.030;8.714;2023-07-16T11:07:11;99448.72;;;26.48;45.75
7532;BME280;3807;49.030;8.714;2023-07-16T11:12:12;99443.66;;;26.65;45.19
7532;BME280;3807;49.030;8.714;2023-07-16T11:14:39;99436.75;;;26.81;43.51
7532;BME280;3807;49.030;8.714;2023-07-16T11:17:06;99437.87;;;26.79;44.82
7532;BME280;3807;49.030;8.714;2023-07-16T11:19:32;99445.22;;;27.01;44.75
7532;BME280;3807;49.030;8.714;2023-07-16T11:21:59;99439.38;;;27.07;44.59
7532;BME280;3807;49.030;8.714;2023-07-16T11:24:25;99437.41;;;27.27;44.45
7532;BME280;3807;49.030;8.714;2023-07-16T11:26:53;99431.25;;;27.45;44.06
7532;BME280;3807;49.030;8.714;2023-07-16T11:29:19;99437.31;;;27.45;43.83
7532;BME280;3807;49.030;8.714;2023-07-16T11:31:49;99435.22;;;27.57;42.85
7532;BME280;3807;49.030;8.714;2023-07-16T11:34:14;99439.81;;;27.55;43.15
7532;BME280;3807;49.030;8.714;2023-07-16T11:36:39;99439.50;;;27.58;43.84
7532;BME280;3807;49.030;8.714;2023-07-16T11:39:05;99434.78;;;27.70;43.82
7532;BME280;3807;49.030;8.714;2023-07-16T11:41:30;99438.22;;;27.62;43.56
7532;BME280;3807;49.030;8.714;2023-07-16T11:44:02;99439.44;;;27.76;43.29
7532;BME280;3807;49.030;8.714;2023-07-16T11:46:31;99434.72;;;27.96;42.39
7532;BME280;3807;49.030;8.714;2023-07-16T11:49:00;99433.94;;;28.04;42.75
7532;BME280;3807;49.030;8.714;2023-07-16T11:51:26;99428.03;;;28.01;42.79
7532;BME280;3807;49.030;8.714;2023-07-16T11:53:51;99430.00;;;28.16;42.54
7532;BME280;3807;49.030;8.714;2023-07-16T11:56:17;99436.56;;;28.12;42.17
7532;BME280;3807;49.030;8.714;2023-07-16T11:58:42;99436.41;;;28.30;42.26
7532;BME280;3807;49.030;8.714;2023-07-16T12:01:08;99438.53;;;28.26;41.54
7532;BME280;3807;49.030;8.714;2023-07-16T12:03:33;99435.78;;;28.52;40.62
7532;BME280;3807;49.030;8.714;2023-07-16T12:05:59;99424.81;;;28.73;41.34
7532;BME280;3807;49.030;8.714;2023-07-16T12:08:24;99406.13;;;28.84;41.32
7532;BME280;3807;49.030;8.714;2023-07-16T12:10:50;99416.13;;;28.81;41.38
7532;BME280;3807;49.030;8.714;2023-07-16T12:13:15;99410.56;;;28.76;41.44
7532;BME280;3807;49.030;8.714;2023-07-16T12:15:40;99409.88;;;28.98;40.06
7532;BME280;3807;49.030;8.714;2023-07-16T12:18:06;99403.97;;;29.04;41.40
7532;BME280;3807;49.030;8.714;2023-07-16T12:20:31;99402.19;;;29.05;40.90
7532;BME280;3807;49.030;8.714;2023-07-16T12:22:56;99400.06;;;28.76;40.58
7532;BME280;3807;49.030;8.714;2023-07-16T12:25:22;99403.66;;;28.99;40.64
7532;BME280;3807;49.030;8.714;2023-07-16T12:27:47;99409.59;;;29.32;40.47
7532;BME280;3807;49.030;8.714;2023-07-16T12:30:12;99400.41;;;29.44;40.04
7532;BME280;3807;49.030;8.714;2023-07-16T12:32:39;99400.34;;;29.61;38.69
7532;BME280;3807;49.030;8.714;2023-07-16T12:35:04;99391.97;;;29.57;39.19
7532;BME280;3807;49.030;8.714;2023-07-16T12:37:30;99393.91;;;29.63;39.31
7532;BME280;3807;49.030;8.714;2023-07-16T12:39:55;99398.34;;;29.63;39.27
7532;BME280;3807;49.030;8.714;2023-07-16T12:42:21;99394.03;;;29.78;39.25
7532;BME280;3807;49.030;8.714;2023-07-16T12:44:46;99393.63;;;29.89;39.11
7532;BME280;3807;49.030;8.714;2023-07-16T12:47:11;99391.34;;;29.86;38.72
7532;BME280;3807;49.030;8.714;2023-07-16T12:49:37;99391.28;;;29.95;38.27
7532;BME280;3807;49.030;8.714;2023-07-16T12:52:02;99395.88;;;30.15;37.68
7532;BME280;3807;49.030;8.714;2023-07-16T12:54:28;99394.56;;;30.43;36.71
7532;BME280;3807;49.030;8.714;2023-07-16T12:56:54;99393.06;;;30.25;36.79
7532;BME280;3807;49.030;8.714;2023-07-16T12:59:20;99391.72;;;30.29;37.28
7532;BME280;3807;49.030;8.714;2023-07-16T13:01:45;99395.38;;;30.43;37.65
7532;BME280;3807;49.030;8.714;2023-07-16T13:04:10;99389.72;;;30.69;36.79
7532;BME280;3807;49.030;8.714;2023-07-16T13:06:35;99391.34;;;30.70;36.87
7532;BME280;3807;49.030;8.714;2023-07-16T13:09:01;99390.94;;;30.44;37.68
7532;BME280;3807;49.030;8.714;2023-07-16T13:11:26;99391.91;;;30.66;36.31
7532;BME280;3807;49.030;8.714;2023-07-16T13:13:52;99388.03;;;30.76;37.40
7532;BME280;3807;49.030;8.714;2023-07-16T13:16:18;99390.13;;;30.96;35.30
7532;BME280;3807;49.030;8.714;2023-07-16T13:18:43;99384.69;;;30.82;36.93
7532;BME280;3807;49.030;8.714;2023-07-16T13:21:08;99389.31;;;30.80;35.94
7532;BME280;3807;49.030;8.714;2023-07-16T13:23:34;99389.66;;;30.92;34.75
7532;BME280;3807;49.030;8.714;2023-07-16T13:26:00;99381.69;;;31.00;35.71